Pagina principale
METAR-TAF:

METAR-TAF

Aeroporti :

Trevico, Italia

latitudine: 41-03N, longitudine: 015-14E, altezza: 1085 m

Osservazione

Il bollettino è stato emesso 8 ore e 15 minuti fa, alle 17:55 UTC
Vento 4 kt da ovest
Temperature 12°C
Umidità 71%
Pressione 1020 hPa
Visibilità 10 km o più
Nubi sparse ad un'altezza di 1100 ft

METAR: LIRT 151755Z 26004KT 9999 SCT011 12/07 Q1020 RMK SCT VIS MIN 9999 MON INVIS VAL INVIS

Ora: 04:10 (02:10 UTC)


TAF: mancante

Osservazioni e previsioni meteorologiche di più di 4000 aeroporti (messaggi METAR e TAF).

Le stazioni disponibili sono rappresentate dai dischi gialli e rossi sulla carta.

Puntare il mouse per vedere il nome della stazione.

Clicca sopra per visualizzare le osservazioni e previsioni meteorologiche.

Per cambiare la mappa : fare clic sui pulsanti verdi con una croce nera per ingrandire, il pulsante verde con un trattino per diminuire, o sulla freccia verde per le mappe adiacenti.


METAR-TAF: